Time;durP1;ratioP1;P1;durP2;ratioP2;P2;SDS_P1;SDS_P2;PMS_P1;PMS_P2;Temp;Humidity;BMP_temperature;BMP_pressure;BME280_temperature;BME280_humidity;BME280_pressure;Samples;Min_cycle;Max_cycle;Signal;HPM_P1;HPM_P2
2023/01/30 00:01:42;;;;;;;;;;;;;;;;;;4965637;28;20066;-83
2023/01/30 00:04:11;;;;;;;;;;;;;;;;;;4973918;28;20595;-81
2023/01/30 00:06:37;;;;;;;;;;;;;;;;;;4967135;28;20099;-82
2023/01/30 00:09:03;;;;;;;;;;;;;;;;;;4968743;28;20007;-84
2023/01/30 00:11:30;;;;;;;;;;;;;;;;;;4988524;28;20323;-84
2023/01/30 00:13:56;;;;;;;;;;;;;;;;;;4987076;28;20107;-84
2023/01/30 00:16:22;;;;;;;;;;;;;;;;;;4984846;28;19983;-81
2023/01/30 00:18:49;;;;;;;;;;;;;;;;;;4996330;28;19930;-80
2023/01/30 00:21:15;;;;;;;;;;;;;;;;;;4970575;28;19987;-80
2023/01/30 00:23:41;;;;;;;;;;;;;;;;;;4982702;28;19925;-81
2023/01/30 00:26:07;;;;;;;;;;;;;;;;;;4988842;28;19929;-81
2023/01/30 00:28:33;;;;;;;;;;;;;;;;;;4978820;28;21185;-82
2023/01/30 00:30:59;;;;;;;;;;;;;;;;;;5004675;28;19933;-83
2023/01/30 00:33:24;;;;;;;;;;;;;;;;;;4990000;28;19918;-85
2023/01/30 00:35:50;;;;;;;;;;;;;;;;;;4988544;28;20099;-83
2023/01/30 00:38:16;;;;;;;;;;;;;;;;;;4985530;28;19941;-81
2023/01/30 00:40:42;;;;;;;;;;;;;;;;;;4979542;28;19925;-83
2023/01/30 00:48:38;;;;;;;;;;;;;;;;;;4987835;28;20492;-81
2023/01/30 00:51:03;;;;;;;;;;;;;;;;;;4972460;28;19928;-83
2023/01/30 00:53:29;;;;;;;;;;;;;;;;;;4984967;28;19917;-79
2023/01/30 00:55:55;;;;;;;;;;;;;;;;;;4977348;28;19921;-83
2023/01/30 00:58:21;;;;;;;;;;;;;;;;;;4991120;28;19921;-83
2023/01/30 01:00:47;;;;;;;;;;;;;;;;;;4978670;28;20426;-83
2023/01/30 01:03:13;;;;;;;;;;;;;;;;;;4976864;28;19940;-81
2023/01/30 01:05:39;;;;;;;;;;;;;;;;;;4979453;28;19936;-83
2023/01/30 01:08:05;;;;;;;;;;;;;;;;;;4989308;28;19925;-82
2023/01/30 01:10:31;;;;;;;;;;;;;;;;;;4979585;28;20396;-85
2023/01/30 01:12:57;;;;;;;;;;;;;;;;;;4987241;28;19976;-84
2023/01/30 01:15:23;;;;;;;;;;;;;;;;;;4996343;28;19925;-83
2023/01/30 01:17:48;;;;;;;;;;;;;;;;;;4973836;28;19948;-83
2023/01/30 01:20:18;;;;;;;;;;;;;;;;;;4972825;28;19925;-87
2023/01/30 01:22:44;;;;;;;;;;;;;;;;;;4982338;28;19921;-84
2023/01/30 01:25:10;;;;;;;;;;;;;;;;;;4975584;28;19921;-85
2023/01/30 01:27:35;;;;;;;;;;;;;;;;;;4983514;28;19971;-85
2023/01/30 01:30:04;;;;;;;;;;;;;;;;;;4977674;28;19929;-83
2023/01/30 01:32:30;;;;;;;;;;;;;;;;;;4990936;28;19925;-82
2023/01/30 01:34:56;;;;;;;;;;;;;;;;;;4990946;28;20008;-85
2023/01/30 01:37:22;;;;;;;;;;;;;;;;;;4971439;28;19943;-80
2023/01/30 01:42:33;;;;;;;;;;;;;;;;;;4992320;28;19967;-83
2023/01/30 01:44:59;;;;;;;;;;;;;;;;;;5001771;28;19929;-80
2023/01/30 01:47:25;;;;;;;;;;;;;;;;;;4991287;28;19925;-80
2023/01/30 01:49:50;;;;;;;;;;;;;;;;;;4987422;28;20280;-83
2023/01/30 01:52:16;;;;;;;;;;;;;;;;;;4980096;28;19944;-80
2023/01/30 01:54:42;;;;;;;;;;;;;;;;;;4989704;28;19925;-81
2023/01/30 01:57:10;;;;;;;;;;;;;;;;;;4986800;28;19932;-83
2023/01/30 01:59:36;;;;;;;;;;;;;;;;;;4992416;28;19921;-85
2023/01/30 02:02:02;;;;;;;;;;;;;;;;;;4970740;28;19932;-84
2023/01/30 02:07:13;;;;;;;;;;;;;;;;;;4986359;28;19940;-82
2023/01/30 02:09:39;;;;;;;;;;;;;;;;;;4990433;28;20054;-82
2023/01/30 02:12:04;;;;;;;;;;;;;;;;;;4994944;28;22115;-82
2023/01/30 02:14:30;;;;;;;;;;;;;;;;;;4997013;28;19921;-78
2023/01/30 02:16:56;;;;;;;;;;;;;;;;;;4995748;28;19928;-84
2023/01/30 02:19:22;;;;;;;;;;;;;;;;;;4990313;28;19922;-85
2023/01/30 02:21:48;;;;;;;;;;;;;;;;;;4991600;28;20004;-81
2023/01/30 02:24:15;;;;;;;;;;;;;;;;;;4995224;28;20012;-80
2023/01/30 02:26:40;;;;;;;;;;;;;;;;;;4987067;28;19984;-85
2023/01/30 02:29:06;;;;;;;;;;;;;;;;;;4983651;28;19918;-82
2023/01/30 02:31:32;;;;;;;;;;;;;;;;;;4975545;28;19926;-85
2023/01/30 02:33:58;;;;;;;;;;;;;;;;;;4988753;28;19967;-82
2023/01/30 02:36:24;;;;;;;;;;;;;;;;;;4994204;28;19917;-80
2023/01/30 02:38:50;;;;;;;;;;;;;;;;;;4996080;28;19918;-83
2023/01/30 02:41:16;;;;;;;;;;;;;;;;;;4979615;28;19944;-82
2023/01/30 02:43:42;;;;;;;;;;;;;;;;;;4995431;28;19937;-84
2023/01/30 02:46:08;;;;;;;;;;;;;;;;;;4993498;28;19929;-83
2023/01/30 02:48:34;;;;;;;;;;;;;;;;;;4996693;28;19932;-81
2023/01/30 02:51:00;;;;;;;;;;;;;;;;;;4991473;28;19929;-83
2023/01/30 02:53:26;;;;;;;;;;;;;;;;;;4986400;28;19924;-84
2023/01/30 02:55:51;;;;;;;;;;;;;;;;;;4970693;28;20990;-82
2023/01/30 02:58:17;;;;;;;;;;;;;;;;;;4996913;28;19937;-85
2023/01/30 03:00:43;;;;;;;;;;;;;;;;;;4986450;28;19917;-85
2023/01/30 03:03:09;;;;;;;;;;;;;;;;;;4984506;28;19930;-82
2023/01/30 03:05:35;;;;;;;;;;;;;;;;;;4990107;28;19918;-85
2023/01/30 03:08:02;;;;;;;;;;;;;;;;;;4979666;28;20339;-82
2023/01/30 03:10:28;;;;;;;;;;;;;;;;;;4982765;28;19918;-85
2023/01/30 03:12:54;;;;;;;;;;;;;;;;;;4995024;28;19925;-82
2023/01/30 03:15:20;;;;;;;;;;;;;;;;;;4979374;28;20106;-83
2023/01/30 03:17:46;;;;;;;;;;;;;;;;;;4998089;28;20407;-82
2023/01/30 03:20:13;;;;;;;;;;;;;;;;;;4991534;28;19967;-84
2023/01/30 03:22:39;;;;;;;;;;;;;;;;;;4985311;28;19929;-86
2023/01/30 03:25:05;;;;;;;;;;;;;;;;;;4982070;28;20350;-80
2023/01/30 03:27:31;;;;;;;;;;;;;;;;;;4983477;28;20517;-79
2023/01/30 03:29:57;;;;;;;;;;;;;;;;;;4976889;28;19983;-83
2023/01/30 03:32:23;;;;;;;;;;;;;;;;;;4994979;28;20008;-86
2023/01/30 03:34:48;;;;;;;;;;;;;;;;;;4992628;28;20266;-83
2023/01/30 03:37:14;;;;;;;;;;;;;;;;;;4996207;28;20638;-82
2023/01/30 03:39:40;;;;;;;;;;;;;;;;;;4994428;28;19921;-81
2023/01/30 03:42:06;;;;;;;;;;;;;;;;;;4980587;28;20061;-81
2023/01/30 03:44:32;;;;;;;;;;;;;;;;;;4999626;28;19928;-84
2023/01/30 03:46:58;;;;;;;;;;;;;;;;;;4977801;28;19925;-81
2023/01/30 03:49:24;;;;;;;;;;;;;;;;;;4990241;28;19917;-83
2023/01/30 03:51:50;;;;;;;;;;;;;;;;;;4978764;28;19917;-83
2023/01/30 03:54:16;;;;;;;;;;;;;;;;;;4992038;28;19940;-83
2023/01/30 03:56:42;;;;;;;;;;;;;;;;;;4995777;28;19928;-79
2023/01/30 03:59:08;;;;;;;;;;;;;;;;;;4992936;28;19936;-81
2023/01/30 04:01:34;;;;;;;;;;;;;;;;;;4982303;28;19959;-86
2023/01/30 04:03:59;;;;;;;;;;;;;;;;;;4977084;28;19965;-82
2023/01/30 04:06:25;;;;;;;;;;;;;;;;;;4986574;28;20192;-81
2023/01/30 04:08:51;;;;;;;;;;;;;;;;;;5011370;28;19948;-81
2023/01/30 04:11:17;;;;;;;;;;;;;;;;;;4995180;28;19922;-81
2023/01/30 04:13:43;;;;;;;;;;;;;;;;;;4999084;28;20042;-82
2023/01/30 04:16:09;;;;;;;;;;;;;;;;;;4991049;28;19996;-85
2023/01/30 04:18:35;;;;;;;;;;;;;;;;;;4978918;28;20074;-80
2023/01/30 04:21:01;;;;;;;;;;;;;;;;;;4984621;28;20441;-85
2023/01/30 04:23:27;;;;;;;;;;;;;;;;;;4985971;28;19975;-83
2023/01/30 04:25:53;;;;;;;;;;;;;;;;;;4984474;28;19969;-83
2023/01/30 04:28:19;;;;;;;;;;;;;;;;;;5000191;28;19929;-85
2023/01/30 04:30:45;;;;;;;;;;;;;;;;;;4988553;28;19920;-81
2023/01/30 04:33:10;;;;;;;;;;;;;;;;;;4997718;28;19922;-85
2023/01/30 04:35:36;;;;;;;;;;;;;;;;;;4996531;28;20288;-83
2023/01/30 04:38:02;;;;;;;;;;;;;;;;;;4978415;28;19941;-79
2023/01/30 04:40:28;;;;;;;;;;;;;;;;;;5012452;28;20056;-81
2023/01/30 04:42:54;;;;;;;;;;;;;;;;;;5002827;28;20030;-86
2023/01/30 04:45:20;;;;;;;;;;;;;;;;;;4987643;28;19971;-83
2023/01/30 04:47:46;;;;;;;;;;;;;;;;;;4998004;28;19939;-81
2023/01/30 04:50:12;;;;;;;;;;;;;;;;;;4995113;28;21784;-83
2023/01/30 04:52:38;;;;;;;;;;;;;;;;;;4996813;28;19921;-81
2023/01/30 04:55:04;;;;;;;;;;;;;;;;;;4982561;28;19921;-84
2023/01/30 04:57:30;;;;;;;;;;;;;;;;;;4999582;28;19928;-85
2023/01/30 04:59:56;;;;;;;;;;;;;;;;;;4997372;28;19921;-83
2023/01/30 05:02:22;;;;;;;;;;;;;;;;;;4993649;28;19953;-83
2023/01/30 05:04:48;;;;;;;;;;;;;;;;;;4992091;28;19921;-85
2023/01/30 05:07:14;;;;;;;;;;;;;;;;;;4979390;28;19926;-83
2023/01/30 05:09:40;;;;;;;;;;;;;;;;;;4993265;28;19976;-85
2023/01/30 05:12:05;;;;;;;;;;;;;;;;;;4993907;23;19918;-86
2023/01/30 05:14:31;;;;;;;;;;;;;;;;;;4991043;28;19920;-87
2023/01/30 05:16:57;;;;;;;;;;;;;;;;;;5008678;28;20456;-84
2023/01/30 05:19:23;;;;;;;;;;;;;;;;;;4997409;28;19947;-85
2023/01/30 05:21:49;;;;;;;;;;;;;;;;;;5015514;28;19933;-83
2023/01/30 05:24:15;;;;;;;;;;;;;;;;;;4995536;28;19927;-83
2023/01/30 05:26:41;;;;;;;;;;;;;;;;;;4999969;28;19931;-84
2023/01/30 05:29:07;;;;;;;;;;;;;;;;;;4992207;28;19982;-83
2023/01/30 05:31:34;;;;;;;;;;;;;;;;;;4992148;28;23940;-83
2023/01/30 05:34:00;;;;;;;;;;;;;;;;;;4999494;28;20007;-83
2023/01/30 05:36:26;;;;;;;;;;;;;;;;;;5012195;28;20023;-82
2023/01/30 05:38:52;;;;;;;;;;;;;;;;;;5003343;28;20424;-87
2023/01/30 05:41:18;;;;;;;;;;;;;;;;;;5032352;28;19925;-85
2023/01/30 05:43:44;;;;;;;;;;;;;;;;;;5014135;28;20524;-87
2023/01/30 05:46:10;;;;;;;;;;;;;;;;;;5024412;28;19920;-84
2023/01/30 05:48:36;;;;;;;;;;;;;;;;;;5012885;28;19927;-83
2023/01/30 05:51:01;;;;;;;;;;;;;;;;;;5001714;28;19916;-84
2023/01/30 05:53:27;;;;;;;;;;;;;;;;;;4996384;28;19924;-89
2023/01/30 05:55:53;;;;;;;;;;;;;;;;;;4994905;28;19943;-89
2023/01/30 05:58:19;;;;;;;;;;;;;;;;;;5004081;28;19916;-83
2023/01/30 06:00:45;;;;;;;;;;;;;;;;;;5017219;28;19946;-83
2023/01/30 06:03:11;;;;;;;;;;;;;;;;;;5007996;28;20383;-84
2023/01/30 06:05:37;;;;;;;;;;;;;;;;;;5010032;28;20473;-84
2023/01/30 06:08:03;;;;;;;;;;;;;;;;;;5037191;28;19924;-87
2023/01/30 06:10:29;;;;;;;;;;;;;;;;;;5013438;28;20446;-85
2023/01/30 06:12:55;;;;;;;;;;;;;;;;;;5008096;28;20359;-84
2023/01/30 06:15:21;;;;;;;;;;;;;;;;;;5040268;28;20027;-84
2023/01/30 06:17:47;;;;;;;;;;;;;;;;;;5042026;28;22631;-84
2023/01/30 06:20:13;;;;;;;;;;;;;;;;;;5020668;28;19924;-83
2023/01/30 06:22:39;;;;;;;;;;;;;;;;;;4997652;28;19928;-85
2023/01/30 06:25:05;;;;;;;;;;;;;;;;;;5008218;28;19925;-84
2023/01/30 06:27:31;;;;;;;;;;;;;;;;;;5003893;28;20169;-83
2023/01/30 06:30:06;;;;;;;;;;;;;;;;;;5022973;28;21498;-84
2023/01/30 06:32:32;;;;;;;;;;;;;;;;;;5004711;28;19917;-85
2023/01/30 06:34:57;;;;;;;;;;;;;;;;;;5010434;28;19973;-85
2023/01/30 06:37:23;;;;;;;;;;;;;;;;;;5048552;28;19927;-87
2023/01/30 06:39:49;;;;;;;;;;;;;;;;;;4999302;28;19924;-84
2023/01/30 06:42:15;;;;;;;;;;;;;;;;;;5005852;28;19979;-84
2023/01/30 06:44:41;;;;;;;;;;;;;;;;;;4994179;28;19916;-80
2023/01/30 06:47:07;;;;;;;;;;;;;;;;;;5006247;28;19932;-81
2023/01/30 06:49:33;;;;;;;;;;;;;;;;;;4998992;28;19928;-84
2023/01/30 06:51:59;;;;;;;;;;;;;;;;;;5005864;28;19932;-84
2023/01/30 06:54:25;;;;;;;;;;;;;;;;;;5009658;28;19925;-84
2023/01/30 06:56:51;;;;;;;;;;;;;;;;;;5010039;28;19920;-83
2023/01/30 06:59:17;;;;;;;;;;;;;;;;;;5018254;28;19925;-83
2023/01/30 07:01:43;;;;;;;;;;;;;;;;;;5008268;28;19929;-83
2023/01/30 07:04:09;;;;;;;;;;;;;;;;;;5021155;28;20012;-82
2023/01/30 07:06:35;;;;;;;;;;;;;;;;;;5010571;28;20004;-81
2023/01/30 07:09:01;;;;;;;;;;;;;;;;;;5028494;28;19931;-83
2023/01/30 07:11:30;;;;;;;;;;;;;;;;;;5005514;28;19924;-80
2023/01/30 07:13:56;;;;;;;;;;;;;;;;;;5022330;28;20078;-82
2023/01/30 07:16:28;;;;;;;;;;;;;;;;;;5005989;28;19924;-82
2023/01/30 07:18:56;;;;;;;;;;;;;;;;;;5038443;28;19931;-82
2023/01/30 07:21:22;;;;;;;;;;;;;;;;;;5021869;28;19970;-81
2023/01/30 07:23:48;;;;;;;;;;;;;;;;;;5020884;28;20014;-84
2023/01/30 07:26:13;;;;;;;;;;;;;;;;;;5022382;28;20495;-81
2023/01/30 07:28:39;;;;;;;;;;;;;;;;;;5029904;28;20019;-80
2023/01/30 07:31:09;;;;;;;;;;;;;;;;;;5016364;28;19921;-84
2023/01/30 07:33:34;;;;;;;;;;;;;;;;;;5037886;28;19977;-85
2023/01/30 07:36:03;;;;;;;;;;;;;;;;;;5006492;28;19916;-83
2023/01/30 07:38:41;;;;;;;;;;;;;;;;;;5008549;28;20056;-86
2023/01/30 07:41:07;;;;;;;;;;;;;;;;;;5007197;28;19920;-83
2023/01/30 07:43:33;;;;;;;;;;;;;;;;;;5003588;28;20581;-82
2023/01/30 07:46:00;;;;;;;;;;;;;;;;;;5001923;28;19921;-81
2023/01/30 07:48:28;;;;;;;;;;;;;;;;;;5003368;28;19968;-82
2023/01/30 07:50:55;;;;;;;;;;;;;;;;;;5008346;28;19967;-83
2023/01/30 07:53:27;;;;;;;;;;;;;;;;;;5040678;28;19921;-83
2023/01/30 07:55:58;;;;;;;;;;;;;;;;;;5013368;28;20474;-84
2023/01/30 07:58:24;;;;;;;;;;;;;;;;;;5021122;28;19940;-86
2023/01/30 08:00:50;;;;;;;;;;;;;;;;;;5037885;28;20379;-85
2023/01/30 08:03:19;;;;;;;;;;;;;;;;;;5020850;28;19935;-82
2023/01/30 08:05:45;;;;;;;;;;;;;;;;;;5040500;28;20340;-85
2023/01/30 08:08:14;;;;;;;;;;;;;;;;;;5023778;28;19978;-84
2023/01/30 08:10:46;;;;;;;;;;;;;;;;;;5033780;28;19925;-83
2023/01/30 08:13:12;;;;;;;;;;;;;;;;;;5041857;28;19927;-83
2023/01/30 08:15:38;;;;;;;;;;;;;;;;;;5019366;28;20362;-80
2023/01/30 08:18:06;;;;;;;;;;;;;;;;;;5022139;28;20010;-81
2023/01/30 08:20:31;;;;;;;;;;;;;;;;;;5043327;28;19920;-82
2023/01/30 08:22:57;;;;;;;;;;;;;;;;;;5003525;28;19921;-81
2023/01/30 08:25:26;;;;;;;;;;;;;;;;;;5004770;28;19921;-83
2023/01/30 08:28:07;;;;;;;;;;;;;;;;;;5024264;28;20039;-83
2023/01/30 08:30:39;;;;;;;;;;;;;;;;;;5038350;28;20495;-86
2023/01/30 08:33:14;;;;;;;;;;;;;;;;;;5003695;28;19927;-85
2023/01/30 08:35:46;;;;;;;;;;;;;;;;;;5015144;28;19920;-86
2023/01/30 08:38:12;;;;;;;;;;;;;;;;;;5000087;28;19924;-86
2023/01/30 08:40:40;;;;;;;;;;;;;;;;;;5013107;28;19925;-80
2023/01/30 08:43:09;;;;;;;;;;;;;;;;;;5001270;28;19921;-85
2023/01/30 08:45:35;;;;;;;;;;;;;;;;;;5017646;28;20007;-82
2023/01/30 08:48:01;;;;;;;;;;;;;;;;;;5012208;28;19923;-83
2023/01/30 08:50:34;;;;;;;;;;;;;;;;;;5007839;28;19947;-86
2023/01/30 08:53:00;;;;;;;;;;;;;;;;;;4999089;28;19928;-86
2023/01/30 08:58:35;;;;;;;;;;;;;;;;;;4976491;28;19925;-85
2023/01/30 09:01:10;;;;;;;;;;;;;;;;;;4965457;28;19973;-82
2023/01/30 09:03:36;;;;;;;;;;;;;;;;;;4981062;28;20423;-83
2023/01/30 09:06:02;;;;;;;;;;;;;;;;;;4981139;28;20642;-84
2023/01/30 09:08:46;;;;;;;;;;;;;;;;;;4992541;28;20407;-86
2023/01/30 09:11:27;;;;;;;;;;;;;;;;;;4955005;28;19921;-86
2023/01/30 09:13:53;;;;;;;;;;;;;;;;;;4978299;28;19940;-85
2023/01/30 09:16:22;;;;;;;;;;;;;;;;;;4968826;28;20178;-85
2023/01/30 09:18:48;;;;;;;;;;;;;;;;;;4969961;28;19976;-86
2023/01/30 09:21:17;;;;;;;;;;;;;;;;;;5004829;28;19920;-83
2023/01/30 09:23:43;;;;;;;;;;;;;;;;;;5011648;28;19974;-83
2023/01/30 09:26:09;;;;;;;;;;;;;;;;;;5043741;28;19924;-82
2023/01/30 09:28:35;;;;;;;;;;;;;;;;;;5015842;28;20230;-82
2023/01/30 09:31:01;;;;;;;;;;;;;;;;;;5047638;28;19916;-84
2023/01/30 09:33:27;;;;;;;;;;;;;;;;;;5000714;28;19921;-85
2023/01/30 09:35:53;;;;;;;;;;;;;;;;;;5023566;28;19927;-81
2023/01/30 09:38:22;;;;;;;;;;;;;;;;;;5005126;28;19917;-87
2023/01/30 09:40:53;;;;;;;;;;;;;;;;;;5013997;28;20573;-86
2023/01/30 09:43:20;;;;;;;;;;;;;;;;;;5010612;28;20403;-83
2023/01/30 09:45:50;;;;;;;;;;;;;;;;;;5024651;28;19921;-86
2023/01/30 09:48:19;;;;;;;;;;;;;;;;;;5024833;28;19960;-84
2023/01/30 09:53:37;;;;;;;;;;;;;;;;;;5013595;28;20666;-85
2023/01/30 09:56:03;;;;;;;;;;;;;;;;;;5034478;28;19956;-86
2023/01/30 09:58:29;;;;;;;;;;;;;;;;;;5007831;28;19921;-88
2023/01/30 10:00:55;;;;;;;;;;;;;;;;;;5010571;28;19925;-86
2023/01/30 10:03:20;;;;;;;;;;;;;;;;;;5032500;28;20311;-84
2023/01/30 10:05:46;;;;;;;;;;;;;;;;;;5052728;28;19917;-81
2023/01/30 10:08:12;;;;;;;;;;;;;;;;;;5030816;28;19967;-80
2023/01/30 10:10:38;;;;;;;;;;;;;;;;;;5029010;28;19928;-85
2023/01/30 10:13:09;;;;;;;;;;;;;;;;;;5004061;28;19925;-82
2023/01/30 10:15:34;;;;;;;;;;;;;;;;;;5003846;28;19998;-79
2023/01/30 10:18:00;;;;;;;;;;;;;;;;;;5022246;28;22837;-82
2023/01/30 10:20:31;;;;;;;;;;;;;;;;;;5019847;28;19970;-85
2023/01/30 10:22:57;;;;;;;;;;;;;;;;;;5011069;28;20013;-81
2023/01/30 10:25:23;;;;;;;;;;;;;;;;;;5025171;28;19924;-82
2023/01/30 10:27:54;;;;;;;;;;;;;;;;;;5028867;28;19916;-83
2023/01/30 10:30:20;;;;;;;;;;;;;;;;;;5027646;28;19916;-81
2023/01/30 10:32:47;;;;;;;;;;;;;;;;;;5033639;28;20326;-83
2023/01/30 10:35:13;;;;;;;;;;;;;;;;;;5039375;28;20023;-82
2023/01/30 10:37:39;;;;;;;;;;;;;;;;;;5033864;28;19924;-87
2023/01/30 10:40:05;;;;;;;;;;;;;;;;;;5028944;28;20377;-81
2023/01/30 10:42:31;;;;;;;;;;;;;;;;;;5043797;23;20024;-83
2023/01/30 10:44:57;;;;;;;;;;;;;;;;;;4991029;28;20045;-80
2023/01/30 10:47:23;;;;;;;;;;;;;;;;;;4985220;28;19917;-82
2023/01/30 10:49:49;;;;;;;;;;;;;;;;;;5008072;28;19924;-84
2023/01/30 10:52:15;;;;;;;;;;;;;;;;;;4997606;28;19921;-82
2023/01/30 10:54:43;;;;;;;;;;;;;;;;;;5001862;28;19917;-80
2023/01/30 10:57:12;;;;;;;;;;;;;;;;;;5027190;23;19971;-86
2023/01/30 10:59:39;;;;;;;;;;;;;;;;;;4951307;28;19926;-83
2023/01/30 11:02:05;;;;;;;;;;;;;;;;;;4987822;28;19930;-81
2023/01/30 11:04:31;;;;;;;;;;;;;;;;;;4977227;28;19944;-83
2023/01/30 11:06:57;;;;;;;;;;;;;;;;;;4977945;28;20024;-83
2023/01/30 11:09:23;;;;;;;;;;;;;;;;;;4954546;28;19925;-81
2023/01/30 11:11:49;;;;;;;;;;;;;;;;;;4968745;28;19917;-82
2023/01/30 11:14:15;;;;;;;;;;;;;;;;;;4961606;28;20350;-83
2023/01/30 11:16:42;;;;;;;;;;;;;;;;;;4972803;28;19921;-81
2023/01/30 11:19:08;;;;;;;;;;;;;;;;;;4977205;28;19926;-81
2023/01/30 11:21:34;;;;;;;;;;;;;;;;;;4949239;28;19928;-80
2023/01/30 11:23:59;;;;;;;;;;;;;;;;;;4970929;28;19925;-81
2023/01/30 11:26:26;;;;;;;;;;;;;;;;;;4965756;28;19917;-84
2023/01/30 11:28:52;;;;;;;;;;;;;;;;;;4988805;28;19931;-81
2023/01/30 11:31:18;;;;;;;;;;;;;;;;;;4977697;28;19921;-81
2023/01/30 11:33:44;;;;;;;;;;;;;;;;;;4982030;28;19922;-81
2023/01/30 11:36:10;;;;;;;;;;;;;;;;;;4957217;28;19941;-81
2023/01/30 11:38:39;;;;;;;;;;;;;;;;;;4974163;28;19972;-83
2023/01/30 11:41:08;;;;;;;;;;;;;;;;;;4991122;28;19957;-85
2023/01/30 11:43:40;;;;;;;;;;;;;;;;;;4992217;28;19918;-81
2023/01/30 11:46:06;;;;;;;;;;;;;;;;;;4956659;28;19956;-79
2023/01/30 11:48:31;;;;;;;;;;;;;;;;;;4964702;28;19980;-81
2023/01/30 11:51:00;;;;;;;;;;;;;;;;;;4972312;28;19943;-84
2023/01/30 11:53:26;;;;;;;;;;;;;;;;;;4961536;28;20032;-81
2023/01/30 11:55:52;;;;;;;;;;;;;;;;;;4982030;28;19925;-83
2023/01/30 11:58:18;;;;;;;;;;;;;;;;;;4971060;28;19921;-80
2023/01/30 12:00:44;;;;;;;;;;;;;;;;;;4967702;28;19921;-84
2023/01/30 12:03:10;;;;;;;;;;;;;;;;;;4968428;28;19917;-78
2023/01/30 12:05:36;;;;;;;;;;;;;;;;;;4969935;28;19926;-81
2023/01/30 12:08:01;;;;;;;;;;;;;;;;;;4958961;28;19955;-83
2023/01/30 12:10:27;;;;;;;;;;;;;;;;;;4967626;28;19925;-81
2023/01/30 12:12:53;;;;;;;;;;;;;;;;;;4960167;28;20008;-89
2023/01/30 12:15:19;;;;;;;;;;;;;;;;;;4955926;28;19933;-86
2023/01/30 12:17:45;;;;;;;;;;;;;;;;;;4954994;28;19948;-83
2023/01/30 12:20:11;;;;;;;;;;;;;;;;;;4969836;28;19921;-82
2023/01/30 12:22:37;;;;;;;;;;;;;;;;;;4973362;28;20357;-80
2023/01/30 12:25:03;;;;;;;;;;;;;;;;;;4989950;28;19979;-83
2023/01/30 12:27:29;;;;;;;;;;;;;;;;;;4963270;28;19921;-83
2023/01/30 12:29:55;;;;;;;;;;;;;;;;;;4967901;28;19925;-81
2023/01/30 12:32:21;;;;;;;;;;;;;;;;;;4971136;28;19922;-82
2023/01/30 12:34:47;;;;;;;;;;;;;;;;;;4971005;28;19961;-82
2023/01/30 12:37:13;;;;;;;;;;;;;;;;;;4970883;28;19926;-79
2023/01/30 12:39:39;;;;;;;;;;;;;;;;;;4972189;28;19925;-81
2023/01/30 12:42:04;;;;;;;;;;;;;;;;;;4969317;28;19952;-82
2023/01/30 12:44:30;;;;;;;;;;;;;;;;;;4984969;28;20411;-84
2023/01/30 12:46:56;;;;;;;;;;;;;;;;;;4966537;28;19917;-82
2023/01/30 12:49:22;;;;;;;;;;;;;;;;;;4970784;28;19921;-83
2023/01/30 12:51:48;;;;;;;;;;;;;;;;;;4967909;28;19928;-82
2023/01/30 12:54:14;;;;;;;;;;;;;;;;;;4986706;28;19929;-81
2023/01/30 12:56:40;;;;;;;;;;;;;;;;;;4975460;28;19976;-83
2023/01/30 12:59:06;;;;;;;;;;;;;;;;;;4971100;28;20409;-82
2023/01/30 13:01:32;;;;;;;;;;;;;;;;;;4965022;28;19929;-84
2023/01/30 13:03:58;;;;;;;;;;;;;;;;;;4977904;28;20403;-82
2023/01/30 13:06:24;;;;;;;;;;;;;;;;;;4964604;28;20041;-84
2023/01/30 13:08:50;;;;;;;;;;;;;;;;;;4966729;28;20492;-83
2023/01/30 13:11:16;;;;;;;;;;;;;;;;;;4949203;28;19963;-80
2023/01/30 13:13:42;;;;;;;;;;;;;;;;;;4966285;28;19988;-83
2023/01/30 13:16:08;;;;;;;;;;;;;;;;;;4965035;28;19926;-82
2023/01/30 13:18:34;;;;;;;;;;;;;;;;;;4959559;28;19925;-82
2023/01/30 13:21:00;;;;;;;;;;;;;;;;;;4961236;28;19932;-85
2023/01/30 13:23:26;;;;;;;;;;;;;;;;;;4964699;28;20052;-82
2023/01/30 13:25:52;;;;;;;;;;;;;;;;;;4981548;28;21378;-81
2023/01/30 13:28:17;;;;;;;;;;;;;;;;;;4965807;28;19922;-82
2023/01/30 13:30:43;;;;;;;;;;;;;;;;;;4962391;28;19917;-83
2023/01/30 13:33:09;;;;;;;;;;;;;;;;;;4962264;28;19926;-83
2023/01/30 13:35:35;;;;;;;;;;;;;;;;;;4959891;28;19917;-87
2023/01/30 13:38:01;;;;;;;;;;;;;;;;;;4962465;28;19917;-81
2023/01/30 13:40:27;;;;;;;;;;;;;;;;;;4961637;28;19926;-82
2023/01/30 13:42:54;;;;;;;;;;;;;;;;;;4980308;28;19921;-82
2023/01/30 13:45:19;;;;;;;;;;;;;;;;;;4961842;28;20432;-82
2023/01/30 13:47:45;;;;;;;;;;;;;;;;;;4978945;28;19917;-82
2023/01/30 13:50:11;;;;;;;;;;;;;;;;;;4963333;28;19917;-80
2023/01/30 13:52:37;;;;;;;;;;;;;;;;;;4959424;28;19928;-81
2023/01/30 13:55:03;;;;;;;;;;;;;;;;;;4963737;28;20435;-83
2023/01/30 13:57:29;;;;;;;;;;;;;;;;;;4962068;28;20360;-82
2023/01/30 13:59:55;;;;;;;;;;;;;;;;;;4963061;28;19918;-82
2023/01/30 14:02:21;;;;;;;;;;;;;;;;;;4963704;28;19921;-79
2023/01/30 14:04:47;;;;;;;;;;;;;;;;;;4957292;28;21709;-82
2023/01/30 14:07:13;;;;;;;;;;;;;;;;;;4965879;28;19926;-82
2023/01/30 14:09:39;;;;;;;;;;;;;;;;;;4965658;28;19917;-80
2023/01/30 14:12:05;;;;;;;;;;;;;;;;;;4963852;28;19921;-84
2023/01/30 14:14:31;;;;;;;;;;;;;;;;;;4970573;28;19953;-82
2023/01/30 14:16:57;;;;;;;;;;;;;;;;;;4944861;28;20019;-79
2023/01/30 14:19:23;;;;;;;;;;;;;;;;;;4948573;28;19918;-83
2023/01/30 14:21:49;;;;;;;;;;;;;;;;;;4982185;28;19991;-80
2023/01/30 14:24:15;;;;;;;;;;;;;;;;;;4970405;28;19918;-82
2023/01/30 14:26:41;;;;;;;;;;;;;;;;;;4974217;28;19925;-83
2023/01/30 14:29:07;;;;;;;;;;;;;;;;;;4967256;28;20434;-78
2023/01/30 14:31:35;;;;;;;;;;;;;;;;;;4967506;28;19921;-86
2023/01/30 14:34:01;;;;;;;;;;;;;;;;;;4948364;28;19921;-82
2023/01/30 14:36:27;;;;;;;;;;;;;;;;;;4967266;28;19921;-83
2023/01/30 14:38:53;;;;;;;;;;;;;;;;;;4969307;28;20320;-82
2023/01/30 14:41:19;;;;;;;;;;;;;;;;;;4991961;28;19929;-82
2023/01/30 14:43:46;;;;;;;;;;;;;;;;;;4962157;28;19918;-83
2023/01/30 14:46:12;;;;;;;;;;;;;;;;;;4986044;28;19929;-83
2023/01/30 14:48:38;;;;;;;;;;;;;;;;;;4958940;28;19918;-81
2023/01/30 14:51:04;;;;;;;;;;;;;;;;;;4966568;28;19929;-82
2023/01/30 14:53:30;;;;;;;;;;;;;;;;;;4972888;28;19928;-84
2023/01/30 14:55:56;;;;;;;;;;;;;;;;;;4963156;28;19918;-80
2023/01/30 14:58:22;;;;;;;;;;;;;;;;;;4974453;28;20024;-83
2023/01/30 15:00:48;;;;;;;;;;;;;;;;;;4965360;28;19930;-83
2023/01/30 15:03:14;;;;;;;;;;;;;;;;;;4963993;28;19921;-83
2023/01/30 15:05:40;;;;;;;;;;;;;;;;;;4955989;28;19921;-83
2023/01/30 15:08:06;;;;;;;;;;;;;;;;;;4964916;28;20288;-81
2023/01/30 15:10:32;;;;;;;;;;;;;;;;;;4984099;28;19918;-82
2023/01/30 15:12:58;;;;;;;;;;;;;;;;;;4961550;28;19979;-83
2023/01/30 15:15:24;;;;;;;;;;;;;;;;;;4960970;28;20024;-81
2023/01/30 15:17:50;;;;;;;;;;;;;;;;;;4960444;28;20008;-81
2023/01/30 15:20:18;;;;;;;;;;;;;;;;;;4960065;28;19922;-84
2023/01/30 15:22:44;;;;;;;;;;;;;;;;;;4950033;28;19925;-80
2023/01/30 15:25:10;;;;;;;;;;;;;;;;;;4966211;28;20439;-84
2023/01/30 15:27:42;;;;;;;;;;;;;;;;;;4952591;28;19957;-82
2023/01/30 15:30:17;;;;;;;;;;;;;;;;;;4948434;28;19921;-81
2023/01/30 15:32:48;;;;;;;;;;;;;;;;;;4949328;28;20344;-80
2023/01/30 15:35:14;;;;;;;;;;;;;;;;;;4942270;28;19917;-81
2023/01/30 15:37:40;;;;;;;;;;;;;;;;;;4945493;28;19932;-80
2023/01/30 15:40:06;;;;;;;;;;;;;;;;;;4962852;28;19937;-83
2023/01/30 15:42:42;;;;;;;;;;;;;;;;;;;;;
2023/01/30 15:45:08;;;;;;;;;;;;;;;;;;4963548;28;19918;-86
2023/01/30 15:47:34;;;;;;;;;;;;;;;;;;4960650;28;19917;-82
2023/01/30 15:50:00;;;;;;;;;;;;;;;;;;4960146;28;20475;-83
2023/01/30 15:52:27;;;;;;;;;;;;;;;;;;4980718;28;19919;-81
2023/01/30 15:54:53;;;;;;;;;;;;;;;;;;4978441;28;20434;-80
2023/01/30 15:57:19;;;;;;;;;;;;;;;;;;4975950;28;20031;-80
2023/01/30 15:59:45;;;;;;;;;;;;;;;;;;4962332;28;19997;-80
2023/01/30 16:02:11;;;;;;;;;;;;;;;;;;4961168;28;20041;-79
2023/01/30 16:04:37;;;;;;;;;;;;;;;;;;4959245;28;20453;-79
2023/01/30 16:07:03;;;;;;;;;;;;;;;;;;4966318;28;19921;-81
2023/01/30 16:09:29;;;;;;;;;;;;;;;;;;4953271;28;19918;-84
2023/01/30 16:11:55;;;;;;;;;;;;;;;;;;4959415;28;19948;-79
2023/01/30 16:14:21;;;;;;;;;;;;;;;;;;4957700;28;19933;-80
2023/01/30 16:16:46;;;;;;;;;;;;;;;;;;4964313;28;19917;-81
2023/01/30 16:19:12;;;;;;;;;;;;;;;;;;4958904;28;20422;-79
2023/01/30 16:21:39;;;;;;;;;;;;;;;;;;4948699;28;19984;-81
2023/01/30 16:24:05;;;;;;;;;;;;;;;;;;4966056;28;20099;-81
2023/01/30 16:26:30;;;;;;;;;;;;;;;;;;4936700;28;19967;-82
2023/01/30 16:28:56;;;;;;;;;;;;;;;;;;4940448;28;20017;-80
2023/01/30 16:31:24;;;;;;;;;;;;;;;;;;4961280;28;19945;-80
2023/01/30 16:33:50;;;;;;;;;;;;;;;;;;4964868;28;19925;-80
2023/01/30 16:36:16;;;;;;;;;;;;;;;;;;4957936;28;21541;-79
2023/01/30 16:38:43;;;;;;;;;;;;;;;;;;4949614;28;20043;-79
2023/01/30 16:41:09;;;;;;;;;;;;;;;;;;4965722;28;19928;-81
2023/01/30 16:43:34;;;;;;;;;;;;;;;;;;4958248;28;19921;-81
2023/01/30 16:46:00;;;;;;;;;;;;;;;;;;4943248;28;20336;-80
2023/01/30 16:48:29;;;;;;;;;;;;;;;;;;4959176;28;19941;-83
2023/01/30 16:50:55;;;;;;;;;;;;;;;;;;4953351;28;19933;-82
2023/01/30 16:53:21;;;;;;;;;;;;;;;;;;4941290;28;19926;-82
2023/01/30 16:55:47;;;;;;;;;;;;;;;;;;4957492;28;19924;-82
2023/01/30 16:58:13;;;;;;;;;;;;;;;;;;4973143;23;19930;-85